Daniel Sierralta

Olheiro - Palestino
20 Fev 2028
Domingo
Processo

Personalidade

Adaptabilidade (1) Ambição (8) Controvérsia (13) Lealdade (5) Pressão (11) Profissionalismo (19) Espírito Esportivo (15) Temperamento (15)

Perfil

Estilo de Treinamento Democrático
Licença Continental C
Determinação 4
Gestão de Pessoas 4
Motivação 10
Disciplina 7
Satisfação no Trabalho
100%
Fadiga
0%
Função Olheiro
Salário 73.2K p/s
Contrato 14.03.2029

Desempenho

Comportamento Bom
Eficácia do Treinamento
50%
Desenvolvimento do Jogador
30%
Prevenção de Lesões
40%
Implementação Tática
45%

Eventos Recentes

Participou de uma reunião de recrutamento agora
Avaliou um jogador agora
Avaliou um jogador agora
Avaliou um jogador agora
Avaliou um jogador 7d atrás
Observou uma partida 7d atrás
Avaliou um jogador 7d atrás
Avaliou um jogador 7d atrás

Monitorando agora

183
Jogador Clube Status Habilidade Confiança Observado Última observação Último voto
Buba Sangaré Elche Ativo 138 / 146 40% 3 19.02.2028 -
Ronan Kpakio Cardiff City Ativo 127 / 130 40% 2 19.02.2028 -
Pape Diong Westerlo Ativo 112 / 131 40% 1 19.02.2028 -
Nhoa Sangui Chamois Niortais Ativo 134 / 130 40% 2 18.02.2028 -
Vasilije Novičić IMT Ativo 109 / 115 40% 2 18.02.2028 -
Ronnie Harvey Bromley Ativo 84 / 94 40% 1 18.02.2028 -
Tobias Moi Bodo/Glimt Ativo 105 / 128 40% 2 17.02.2028 -
Sascha Britschgi Padova Ativo 132 / 120 40% 1 17.02.2028 -
Mirza Ćatović VfB Stuttgart Ativo 115 / 125 40% 1 17.02.2028 -
Christos Mouzakitis Hull City Ativo 132 / 124 40% 4 16.02.2028 -
Trey Nyoni Rotherham United Ativo 131 / 131 40% 2 16.02.2028 -
Juan Giménez Celta Ativo 117 / 112 40% 5 13.02.2028 -
Jorge Salinas Racing Santander Ativo 127 / 138 40% 4 13.02.2028 -
Kauã Moraes Cruzeiro Ativo 128 / 141 40% 2 13.02.2028 -
Jofre Torrents Ajax Ativo 134 / 142 40% 2 12.02.2028 -
Dmitry Pestryakov Dinamo Moscow Ativo 111 / 132 40% 2 12.02.2028 -
Owen Foye Swindon Town Ativo 80 / 85 40% 1 12.02.2028 -
Nika Kvaratskhelia Tskhinvali Ativo 92 / 102 40% 2 11.02.2028 -
Mikkel Hope Haugesund Ativo 107 / 88 40% 2 11.02.2028 -
Esquerdinha Shrewsbury Town Ativo 115 / 141 40% 1 11.02.2028 -
Luis Otávio Colorado Rapids Ativo 117 / 108 40% 6 10.02.2028 -
Pedro Soma San Diego Football Club Ativo 104 / 124 40% 1 10.02.2028 -
Mateo Rodríguez Artigas Ativo 75 / 76 40% 3 09.02.2028 -
Lucas Camejo River Plate Ativo 86 / 91 40% 3 09.02.2028 -
Abubakar Adams Aduana Stars Ativo 78 / 94 40% 1 09.02.2028 -
Hamad Šaćirović Novi Pazar Ativo 79 / 114 40% 1 08.02.2028 -
Giovanni Leoni Bradford City Ativo 144 / 162 40% 6 07.02.2028 -
Freddy Murillo Valencia Ativo 111 / 130 40% 2 12.01.2028 -
Emmanuel Dzigbah Cukaricki Ativo 103 / 95 40% 1 12.01.2028 -
Joelson Gamarra General Caballero Ativo 72 / 67 40% 4 10.01.2028 -
Archie Gray Derby County Ativo 149 / 163 40% 3 10.01.2028 -
Caleb Yirenkyi Coventry City Ativo 146 / 141 40% 6 09.01.2028 -
Ricky Atletico Venezuela Ativo 102 / 112 40% 5 09.01.2028 -
Agustín Obregón River Plate Ativo 118 / 108 40% 2 09.01.2028 -
Daniel Gomez Valledupar Ativo 85 / 101 40% 2 08.01.2028 -
Jhon Cortez Barranquilla Ativo 92 / 81 40% 1 08.01.2028 -
Junior Machis Atletico Venezuela Ativo 83 / 82 40% 5 06.01.2028 -
Héctor Fort Real Sociedad Ativo 137 / 129 40% 2 06.01.2028 -
Yury Oyarzo Racing Ativo 93 / 99 40% 2 03.01.2028 -
Matías Canedo Rampla Juniors Ativo 81 / 83 40% 2 03.01.2028 -
Christian Bravo Antofagasta Perdido 109 / 105 76% 1 20.12.2027 Aprovar
Sebastián Ramírez Jaguares Ativo 103 / 125 40% 3 13.12.2027 -
Mauro Carrizo Atlético Tucumán Ativo 95 / 97 40% 4 30.11.2027 -
José Correa Deportivo Tachira Ativo 94 / 108 40% 3 24.11.2027 -
Sebastián Caballero Barranquilla Ativo 89 / 106 40% 2 24.11.2027 -
David Asayure Lokomotivi Ativo 80 / 92 40% 2 23.11.2027 -
Santino Pasini Nea Salamis Ativo 98 / 107 40% 1 23.11.2027 -
Juan Morán Godoy Cruz Ativo 108 / 109 40% 3 20.11.2027 -
Colin Guske Orlando City Ativo 88 / 110 40% 3 17.11.2027 -
Emiliano Bértoli Patronato Ativo 95 / 88 40% 1 17.11.2027 -
David Valencia Alianza Petrolera Negociando 127 / 132 40% 3 16.11.2027 -
Nazareno Roselli Defensa y Justicia Ativo 114 / 114 40% 1 16.11.2027 -
Olaniyi Saheed Kwara United Ativo 87 / 90 40% 3 15.11.2027 -
Juan Camilo Córdoba Deportivo Pereira Ativo 85 / 102 40% 4 15.11.2027 -
Felipe Obradovich Ferro Carril Oeste Ativo 111 / 105 40% 3 11.11.2027 -
Tiago Gordillo San Miguel Ativo 90 / 89 40% 3 11.11.2027 -
Hervin Goyes Deportivo Pasto Ativo 106 / 113 40% 5 10.11.2027 -
Mads Bomholt Stabaek Ativo 100 / 104 40% 2 10.11.2027 -
Joel Ezra Enyimba Ativo 100 / 101 40% 4 08.11.2027 -
Ángel Aguayo Sol de America Ativo 91 / 108 40% 2 06.11.2027 -
Godwin Oham Warri Wolves Ativo 91 / 78 40% 2 05.11.2027 -
Hosea Michael Remo Stars Ativo 82 / 99 40% 2 01.11.2027 -
Felipe Faúndez O'Higgins Ativo 99 / 108 40% 2 31.10.2027 -
Tobías Andrada Virtus Entella Ativo 122 / 130 40% 1 31.10.2027 -
Ayden Heaven Luton Town Ativo 149 / 135 40% 3 30.10.2027 -
Josh Nichols Tranmere Rovers Ativo 115 / 116 40% 1 29.10.2027 -
Samuel Martín Millonarios Ativo 105 / 122 40% 1 24.10.2027 -
Uzoigwe Odinaka Nairobi United Ativo 59 / 65 40% 2 21.10.2027 -
Carlos Angulo Deportivo Pasto Ativo 91 / 85 40% 1 21.10.2027 -
Esteban de Lima Tacuarembo Ativo 87 / 85 40% 4 20.10.2027 -
Jon Martín Real Sociedad Ativo 142 / 159 40% 3 19.10.2027 -
David Damboama El-Kanemi Warriors Ativo 82 / 90 40% 1 19.10.2027 -
Josh King Chelsea Ativo 140 / 164 40% 1 18.10.2027 -
Máximo Munarriz San Telmo Ativo 97 / 107 40% 1 17.10.2027 -
Issa Yusuf Shooting Stars Ativo 84 / 89 40% 2 12.10.2027 -
Pablo Alcoba Albion Ativo 80 / 91 40% 2 11.10.2027 -
Gift Udoh Ikorodu City Ativo 83 / 102 40% 2 11.10.2027 -
Mohammed Habib Sarwari Kariobangi Sharks Ativo 64 / 58 40% 2 10.10.2027 -
Marvelous Freedom Ikorodu City Ativo 96 / 102 40% 1 02.10.2027 -
Onuorah Onyedika Kun Khalifat Ativo 90 / 97 40% 1 01.10.2027 -
Cristian Guzmán Universitario Popayan Ativo 88 / 80 40% 1 29.09.2027 -
Julio Patiño Fortaleza CEIF Ativo 87 / 77 40% 1 27.09.2027 -
Álvaro Navoni Tigre Ativo 92 / 101 40% 1 27.09.2027 -
Celías Ingenthron Vélez Ativo 119 / 134 40% 2 26.09.2027 -
Gadiel Paoli River Plate Ativo 97 / 98 40% 1 24.09.2027 -
Ulises Giménez River Plate Ativo 107 / 113 40% 1 22.09.2027 -
Eliás Montiel Werder Bremen Ativo 140 / 125 40% 1 19.09.2027 -
Aytor Herrera Zulia Ativo 86 / 85 40% 1 19.09.2027 -
Samuel Posada Leones Ativo 85 / 102 40% 1 17.09.2027 -
Zahir Ibarra Defensa y Justicia Ativo 108 / 95 40% 1 17.09.2027 -
Matías Gómez Granada Ativo 111 / 145 40% 2 16.09.2027 -
Nicolás Blanco San Lorenzo Ativo 105 / 110 40% 1 16.09.2027 -
Diego Vargas San Marcos de Arica Ativo 84 / 90 40% 1 14.09.2027 -
Yusi Alavés Ativo 127 / 126 40% 1 12.09.2027 -
Chibueze Oputa Rangers International Ativo 93 / 89 40% 1 12.09.2027 -
Juan David Sánchez Deportivo Tachira Ativo 96 / 95 40% 1 10.09.2027 -
Mbekezeli Mbokazi Chicago Fire Ativo 117 / 116 40% 1 10.09.2027 -
Mpho Khethang AS Police Ativo 95 / 111 40% 2 09.09.2027 -
Job Ochieng Real Sociedad Ativo 103 / 104 40% 1 20.07.2027 -
Jayden Wareham Barnet Ativo 113 / 123 40% 1 20.07.2027 -
Tom Cannon Sheffield United Ativo 126 / 142 40% 4 28.06.2027 -
Aidomo Emakhu Oxford United Ativo 131 / 113 40% 1 28.06.2027 -
Ilyas Ansah Hull City Ativo 130 / 117 40% 3 23.06.2027 -
Dom Ballard Leyton Orient Ativo 120 / 119 40% 6 23.06.2027 -
Harry Leonard Peterborough United Ativo 105 / 127 40% 2 23.06.2027 -
Zane Albarus Cambridge United Ativo 94 / 104 40% 1 16.06.2027 -
Lander Astiazarán Real Sociedad Ativo 109 / 98 40% 1 16.06.2027 -
Ishmael Addo Heart of Lions Ativo 93 / 85 40% 1 31.05.2027 -
Lynden Edhart Cambuur Ativo 111 / 123 40% 1 31.05.2027 -
Bryan Caicedo Leones Ativo 100 / 105 40% 1 31.05.2027 -
Bernat Guiu Virtus Entella Ativo 117 / 111 40% 1 30.05.2027 -
Ekain Orobengoa Real Sociedad Ativo 92 / 115 40% 1 30.05.2027 -
Karlan Grant West Bromwich Albion Ativo 113 / 113 40% 1 30.05.2027 -
Andri Guðjohnsen Blackburn Rovers Ativo 111 / 120 40% 2 26.05.2027 -
Simone Mazzocchi Cosenza Ativo 109 / 116 40% 1 26.05.2027 -
Cameron Archer Southampton Ativo 135 / 127 40% 1 26.05.2027 -
Tyreece Campbell Charlton Athletic Ativo 105 / 127 40% 3 25.05.2027 -
Luis Vázquez Birmingham Ativo 125 / 141 40% 3 25.05.2027 -
Patson Daka Leicester City Ativo 134 / 135 40% 7 24.05.2027 -
Sam Nombe Milton Keynes Dons Ativo 105 / 98 40% 2 24.05.2027 -
Bradley Fink Wycombe Wanderers Ativo 108 / 126 40% 1 24.05.2027 -
Sam Bell Bristol City Ativo 128 / 105 40% 3 23.05.2027 -
Stephen Humphrys Bradford City Ativo 119 / 92 40% 3 22.05.2027 -
Aune Heggebø West Bromwich Albion Ativo 123 / 117 40% 3 22.05.2027 Observar
Christian Saydee Wigan Athletic Ativo 107 / 111 40% 2 21.05.2027 -
Robert Mizo Ashanti Gold Ativo 109 / 119 40% 1 21.05.2027 -
Jens Odgaard Bologna Ativo 143 / 141 40% 3 20.05.2027 -
Niall Ennis Blackpool Ativo 110 / 127 40% 1 19.05.2027 -
Joe Gelhardt Hull City Ativo 134 / 122 40% 1 17.05.2027 -
Morgan Whittaker Middlesbrough Ativo 128 / 149 40% 2 16.05.2027 -
Romelu Castagne KV Oostende Ativo 127 / 129 40% 1 16.05.2027 -
Giuseppe Di Serio Spezia Ativo 125 / 115 40% 1 13.05.2027 -
Kwame Opoku Asante Kotoko Ativo 91 / 117 40% 2 12.05.2027 -
Zian Flemming Ipswich Town Ativo 124 / 127 40% 3 10.05.2027 -
Elijah Adebayo Luton Town Ativo 118 / 133 40% 3 09.05.2027 -
Lorent Tolaj Plymouth Argyle Ativo 113 / 114 40% 2 07.05.2027 -
Kelly Saravanan Salford City Ativo 105 / 110 40% 1 07.05.2027 -
Aaron Collins Milton Keynes Dons Ativo 132 / 112 40% 2 03.05.2027 -
Samuele di Benedetto Bari Ativo 115 / 100 40% 2 30.04.2027 -
Tiago Freitas Benfica Ativo 108 / 107 40% 2 30.04.2027 -
Leandro Martins Benfica Ativo 80 / 109 40% 1 30.04.2027 -
Percy Jali Free State Stars Ativo 102 / 102 40% 2 29.04.2027 -
Ernie Weaver AFC Wimbledon Ativo 118 / 117 40% 1 29.04.2027 -
Adam Bakoune Ospitaletto Ativo 100 / 99 40% 1 28.04.2027 -
Iwan Morgan Grimsby Town Ativo 125 / 134 40% 4 27.04.2027 -
Will Lankshear Middlesbrough Ativo 116 / 136 40% 4 27.04.2027 -
Ronan Hale Gillingham Ativo 102 / 121 40% 1 27.04.2027 -
Martim Cunha Porto Ativo 114 / 90 40% 1 27.04.2027 -
Marco Tumminello Benevento Ativo 111 / 102 40% 1 26.04.2027 -
Themba Ngcobo SuperSport United Ativo 129 / 123 40% 1 26.04.2027 -
Eduardo Felicíssimo Sporting CP Ativo 102 / 137 40% 1 26.04.2027 -
Lucas Agazzi Defensor Sporting Ativo 115 / 139 40% 2 25.04.2027 -
Fuzy Taylor Medeama Ativo 76 / 102 40% 1 25.04.2027 -
Dávid Strelec Middlesbrough Ativo 127 / 119 40% 3 23.04.2027 -
Marcus Browne AFC Wimbledon Ativo 96 / 91 40% 1 23.04.2027 -
Joseph Nuhu Hasaacas Ativo 96 / 85 40% 1 22.04.2027 -
David Ozoh Derby County Ativo 112 / 113 40% 1 20.04.2027 -
Davis Keillor-Dunn Wrexham Ativo 123 / 134 40% 1 19.04.2027 -
Joel McGregor Swindon Town Ativo 106 / 116 40% 1 18.04.2027 -
Gladson Paintsil Wa All Stars Ativo 86 / 96 40% 1 16.04.2027 -
Jan Bürger Gillingham Ativo 117 / 117 40% 1 16.04.2027 -
Davide Bartesaghi AC Milan Ativo 135 / 152 40% 3 14.04.2027 -
Riley Owen Trento Ativo 101 / 93 40% 1 14.04.2027 -
Gopolang Taunyane CR Belouizdad Ativo 89 / 91 40% 1 13.04.2027 -
Victor Adeboyejo Ismaily Ativo 95 / 112 40% 2 12.04.2027 -
Johan Manzambi Newcastle United Ativo 132 / 133 40% 1 12.04.2027 -
Alassana Jatta Notts County Ativo 102 / 88 40% 2 10.04.2027 -
Daniel Kelly Oxford United Ativo 120 / 118 40% 1 10.04.2027 -
Pietro Reggiori Pro Patria Ativo 85 / 85 40% 1 10.04.2027 -
Zaïd BafdilI Sporting CP Ativo 83 / 99 40% 1 09.04.2027 -
Mathias Jørgensen Blackburn Rovers Ativo 121 / 125 40% 2 08.04.2027 -
Fortune Bassey Djoliba Ativo 95 / 85 40% 1 08.04.2027 -
Chari Giwa US Bougouba Ativo 79 / 71 40% 1 06.04.2027 -
Bienvenue Kanakimana Zbrojovka Brno Ativo 127 / 126 40% 1 02.04.2027 -
Mandla Mahlangu Ajax Cape Town Ativo 96 / 101 40% 2 01.04.2027 -
Chinedu Geoffrey Krylya Sovetov Ativo 127 / 119 40% 1 01.04.2027 -
Yousef Salech Cardiff City Ativo 130 / 142 40% 2 30.03.2027 -
Ruben van Bommel Ferencvaros Ativo 124 / 137 40% 1 30.03.2027 -
Giacomo Zecca Torres Ativo 95 / 92 40% 1 30.03.2027 -
Lee Bonis Chesterfield Ativo 104 / 107 40% 1 26.03.2027 -
Josh Koroma Leyton Orient Ativo 94 / 109 40% 2 25.03.2027 -
Mees Rijks Bristol Rovers Ativo 112 / 130 40% 1 24.03.2027 -
Tomás González Piast Ativo 110 / 98 40% 1 24.03.2027 -